Impacts TAF Board
For situational awareness. Not to be used for flight planning purposes.
IDs:

KSAN - San Diego Intl Arpt, CA, US

Issued at 1311 UTC 10 Aug 2022
Updated at 1418 UTC 10 Aug 2022
Potential Impact None Slight Moderate High
Time1351Z 10/15Z 10/16Z 10/17Z 10/18Z 10/19Z 10/20Z 10/21Z 10/22Z 10/23Z 11/00Z 11/01Z 11/02Z 11/03Z>>
Type OBS PRVL PRVL PRVL PRVL PRVL PRVL PRVL PRVL PRVL PRVL PRVL PRVL PRVL
VIS 10 >6 >6 >6 >6 >6 >6 >6 >6 >6 >6 >6 >6 >6
CIG -- -- -- -- -- -- -- -- -- -- -- -- -- --
Cover SCT FEW FEW FEW FEW FEW SCT SCT SCT SCT SCT SCT SCT SCT
FltCat VFR VFR VFR VFR VFR VFR VFR VFR VFR VFR VFR VFR VFR VFR
WX -- -- -- -- -- -- -- -- -- -- -- -- -- --
WDir 290 VRB VRB VRB VRB VRB 280 280 280 280 280 280 280 VRB
WSpd 4 5 5 5 5 5 9 9 9 9 9 9 9 4
WGst -- -- -- -- -- -- -- -- -- -- -- -- -- --
WSHgt -- -- -- -- -- -- -- -- -- -- -- -- -- --
WSDir -- -- -- -- -- -- -- -- -- -- -- -- -- --
WSSpd -- -- -- -- -- -- -- -- -- -- -- -- -- --
Raw TAF
KSAN 101311Z 1013/1118 VRB05KT P6SM FEW011 FEW250
  FM102000 28009KT P6SM FEW013 SCT150
  FM110300 VRB04KT P6SM SCT150
  TEMPO 1113/1115 BKN011


Raw METAR
KSAN 101351Z 29004KT 10SM FEW011 SCT250 23/20 A2998 RMK AO2 SLP152 T02330200
KSAN 101251Z 00000KT 10SM FEW011 SCT250 22/19 A2997 RMK AO2 SLP147 T02220194
KSAN 101151Z 00000KT 10SM FEW011 SCT250 23/19 A2996 RMK AO2 SLP146 T02280194 10233 20222 57002

METAR Board
Radar Display
Forecast Discussion
For situational awareness. Not to be used for flight planning purposes.